Главная страница
METAR-TAF:

METAR-TAF

Аэропорты :

Симодзи, Япония

широта: 24-50N, долгота: 125-09E, высота над уровнем моря: 16 м

Текущие метеонаблюдения

Эта сводка был подготовлена 36 минут назад, в 04:00 UTC
Ветер 11 Узел от северно-северо-западный
Температура 18°C
Влажность 73%
Давление 1021 hPa
Видимость 10 км и более
Отдельные облака на высоте 2300 фута
Рассеянная облачность на высоте 2700 фута

METAR: RORS 260400Z 34011KT 9999 SCT023 BKN027 18/13 Q1021

Время: 13:36 (04:36 UTC)


TAF: отсутствует

Метеонаблюдения и прогнозы для более 4000 аэропортов (сводки METAR и TAF).

Имеющиеся станции представлены на карте желтыми и красными точками.

Чтобы увидеть название станции, наведите на нее мышь.

Затем щелкните, чтобы увидеть метеонаблюдения и метеопрогнозы.

Управление картой: чтобы увеличить масштаб, щелкните зеленые кнопки с черным крестиком; чтобы уменьшить масштаб, щелкните зеленую кнопку с тире; для просмотра соседних карт щелкайте зеленые стрелки.


METAR-TAF: